Time;durP1;ratioP1;P1;durP2;ratioP2;P2;SDS_P1;SDS_P2;PMS_P1;PMS_P2;Temp;Humidity;BMP_temperature;BMP_pressure;BME280_temperature;BME280_humidity;BME280_pressure;Samples;Min_cycle;Max_cycle;Signal;HPM_P1;HPM_P2
2021/04/12 00:01:50;;;;;;;42.83;23.65;;;;;;;3.53;100.00;97799.91;5048046;28;20136;-77
2021/04/12 00:04:55;;;;;;;40.45;22.20;;;;;;;3.43;100.00;97809.78;5013499;28;20290;-77
2021/04/12 00:07:34;;;;;;;39.65;21.27;;;;;;;3.31;100.00;97806.53;5028820;28;20126;-77
2021/04/12 00:10:14;;;;;;;41.05;22.15;;;;;;;3.38;100.00;97802.53;5045205;28;20049;-76
2021/04/12 00:12:48;;;;;;;45.28;22.75;;;;;;;3.32;100.00;97808.16;5045225;28;20115;-77
2021/04/12 00:15:40;;;;;;;37.67;21.05;;;;;;;3.30;100.00;97815.66;5046128;28;20079;-77
2021/04/12 00:18:16;;;;;;;35.15;19.70;;;;;;;3.23;100.00;97825.81;5049465;28;20071;-78
2021/04/12 00:20:51;;;;;;;38.33;21.98;;;;;;;3.09;100.00;97833.50;5033513;28;20052;-79
2021/04/12 00:23:28;;;;;;;34.55;20.67;;;;;;;3.09;100.00;97828.16;5018845;28;20049;-77
2021/04/12 00:26:15;;;;;;;34.67;20.48;;;;;;;2.97;100.00;97843.59;5054496;28;20156;-77
2021/04/12 00:29:00;;;;;;;30.20;17.65;;;;;;;2.93;100.00;97847.88;5035890;28;20036;-77
2021/04/12 00:31:38;;;;;;;26.05;16.15;;;;;;;3.03;100.00;97848.72;5021132;28;20075;-77
2021/04/12 00:34:15;;;;;;;29.83;17.25;;;;;;;2.90;100.00;97849.19;5053993;28;20152;-78
2021/04/12 00:37:08;;;;;;;27.40;16.02;;;;;;;2.83;100.00;97845.97;5051888;28;20596;-77
2021/04/12 00:39:41;;;;;;;21.95;14.27;;;;;;;2.78;100.00;97856.63;5053386;28;20041;-78
2021/04/12 00:42:19;;;;;;;22.77;13.15;;;;;;;2.79;100.00;97852.06;5034176;28;20069;-78
2021/04/12 00:45:13;;;;;;;20.88;13.02;;;;;;;2.81;100.00;97861.47;5053538;28;20644;-79
2021/04/12 00:48:08;;;;;;;19.73;9.85;;;;;;;2.70;100.00;97867.00;5035880;28;20037;-78
2021/04/12 00:50:53;;;;;;;16.33;9.50;;;;;;;2.62;100.00;97859.44;5020639;28;20044;-78
2021/04/12 00:53:46;;;;;;;14.77;9.53;;;;;;;2.69;100.00;97860.84;5045488;28;20084;-77
2021/04/12 00:56:37;;;;;;;13.85;9.05;;;;;;;2.62;100.00;97862.13;5033993;28;20114;-78
2021/04/12 00:59:32;;;;;;;16.35;9.07;;;;;;;2.59;100.00;97859.97;5033180;28;20056;-78
2021/04/12 01:02:22;;;;;;;13.55;8.60;;;;;;;2.60;100.00;97866.94;5051554;28;20566;-78
2021/04/12 01:04:51;;;;;;;13.80;8.65;;;;;;;2.57;100.00;97868.25;5049227;28;20129;-77
2021/04/12 01:07:26;;;;;;;13.85;8.73;;;;;;;2.47;100.00;97881.53;5065840;28;20044;-77
2021/04/12 01:10:10;;;;;;;13.60;8.57;;;;;;;2.46;100.00;97872.72;5051497;28;20138;-77
2021/04/12 01:12:58;;;;;;;14.82;8.63;;;;;;;2.40;100.00;97876.41;5065943;28;20055;-78
2021/04/12 01:15:48;;;;;;;16.38;8.55;;;;;;;2.47;100.00;97876.19;5050215;28;20045;-77
2021/04/12 01:18:40;;;;;;;17.30;9.23;;;;;;;2.51;100.00;97866.59;5073346;28;20128;-77
2021/04/12 01:21:31;;;;;;;13.77;8.70;;;;;;;2.45;100.00;97881.78;5043474;28;20072;-77
2021/04/12 01:24:31;;;;;;;14.02;9.07;;;;;;;2.51;100.00;97886.13;5048531;28;20049;-77
2021/04/12 01:26:58;;;;;;;17.85;9.00;;;;;;;2.56;100.00;97873.84;5050635;28;20635;-78
2021/04/12 01:29:49;;;;;;;15.13;8.40;;;;;;;2.48;100.00;97886.63;5066130;28;20053;-76
2021/04/12 01:32:15;;;;;;;15.65;8.60;;;;;;;2.44;100.00;97898.91;5066031;28;20045;-77
2021/04/12 01:35:21;;;;;;;15.25;9.40;;;;;;;2.47;100.00;97897.56;5066467;28;20041;-78
2021/04/12 01:37:54;;;;;;;14.57;8.70;;;;;;;2.56;100.00;97903.22;5052147;28;20048;-78
2021/04/12 01:40:28;;;;;;;15.65;9.00;;;;;;;2.57;100.00;97894.16;5060015;28;20793;-78
2021/04/12 01:43:08;;;;;;;15.98;10.00;;;;;;;2.49;100.00;97908.81;5051759;28;20064;-78
2021/04/12 01:45:57;;;;;;;16.42;10.38;;;;;;;2.49;100.00;97906.13;5082985;28;20045;-77
2021/04/12 01:48:39;;;;;;;18.50;10.70;;;;;;;2.46;100.00;97904.78;5052560;28;20045;-77
2021/04/12 01:51:37;;;;;;;16.50;10.32;;;;;;;2.38;100.00;97915.13;5052674;28;20090;-77
2021/04/12 01:54:19;;;;;;;17.83;10.23;;;;;;;2.43;100.00;97917.84;5048486;28;20076;-78
2021/04/12 01:56:51;;;;;;;17.75;10.52;;;;;;;2.45;100.00;97918.41;5051854;28;20721;-77
2021/04/12 01:59:27;;;;;;;20.20;10.93;;;;;;;2.45;100.00;97913.84;5052339;28;20048;-77
2021/04/12 02:01:56;;;;;;;;;;;;;;;2.43;100.00;97910.63;5043002;28;20445;-77
2021/04/12 02:04:44;;;;;;;26.77;13.57;;;;;;;2.30;100.00;97913.72;5052022;28;19924;-78
2021/04/12 02:07:37;;;;;;;27.38;15.27;;;;;;;2.23;100.00;97923.81;5057545;23;20044;-77
2021/04/12 02:10:40;;;;;;;26.42;14.48;;;;;;;2.15;100.00;97921.63;5048325;28;20476;-77
2021/04/12 02:13:25;;;;;;;26.38;15.38;;;;;;;2.12;100.00;97910.63;5029378;28;20041;-76
2021/04/12 02:16:29;;;;;;;28.90;16.20;;;;;;;2.13;100.00;97907.72;5030564;28;20099;-77
2021/04/12 02:19:19;;;;;;;33.15;18.23;;;;;;;2.12;100.00;97916.78;5010404;28;20894;-77
2021/04/12 02:22:00;;;;;;;32.28;17.30;;;;;;;2.02;100.00;97923.88;5019842;28;20053;-79
2021/04/12 02:24:35;;;;;;;33.78;17.25;;;;;;;1.94;100.00;97935.84;5031012;28;20053;-76
2021/04/12 02:27:11;;;;;;;29.88;17.20;;;;;;;1.95;100.00;97925.97;5047411;28;20052;-76
2021/04/12 02:29:43;;;;;;;30.85;17.35;;;;;;;1.89;100.00;97931.25;5049238;28;20444;-76
2021/04/12 02:33:04;;;;;;;36.20;19.08;;;;;;;1.83;100.00;97936.81;5047919;28;20519;-77
2021/04/12 02:35:39;;;;;;;37.95;19.52;;;;;;;1.81;100.00;97928.22;4990227;28;20057;-78
2021/04/12 02:38:14;;;;;;;37.75;19.23;;;;;;;1.77;100.00;97943.13;5023981;28;20055;-78
2021/04/12 02:41:02;;;;;;;35.47;19.38;;;;;;;1.83;100.00;97928.81;5063102;28;20049;-78
2021/04/12 02:43:55;;;;;;;34.10;18.65;;;;;;;1.77;100.00;97929.78;5064193;28;20695;-77
2021/04/12 02:46:46;;;;;;;32.45;18.02;;;;;;;1.79;100.00;97933.81;5049772;28;20040;-77
2021/04/12 02:49:45;;;;;;;34.92;18.65;;;;;;;1.87;100.00;97944.06;5050169;28;20092;-78
2021/04/12 02:52:44;;;;;;;35.50;19.27;;;;;;;1.74;100.00;97956.97;5048438;28;20127;-78
2021/04/12 02:55:31;;;;;;;26.80;15.90;;;;;;;1.53;100.00;97950.59;5049259;28;20118;-77
2021/04/12 02:58:22;;;;;;;25.55;14.77;;;;;;;1.49;100.00;97946.03;5048955;28;20045;-78
2021/04/12 03:01:05;;;;;;;21.23;13.13;;;;;;;1.44;100.00;97953.97;5050406;28;20040;-77
2021/04/12 03:03:40;;;;;;;25.08;14.30;;;;;;;1.42;100.00;97934.75;5084118;28;20053;-78
2021/04/12 03:06:40;;;;;;;20.20;12.55;;;;;;;1.42;100.00;97948.06;5048055;28;20048;-77
2021/04/12 03:09:25;;;;;;;23.85;13.48;;;;;;;1.34;100.00;97953.84;5046662;28;20056;-76
2021/04/12 03:12:04;;;;;;;20.85;12.35;;;;;;;1.34;100.00;97951.19;5063033;28;20045;-77
2021/04/12 03:14:54;;;;;;;25.48;13.88;;;;;;;1.40;100.00;97963.50;5046642;28;20598;-76
2021/04/12 03:17:57;;;;;;;24.60;13.77;;;;;;;1.40;100.00;97958.97;5047238;28;20056;-77
2021/04/12 03:20:41;;;;;;;22.67;12.80;;;;;;;1.31;100.00;97949.00;5029572;28;20461;-77
2021/04/12 03:23:09;;;;;;;21.30;12.35;;;;;;;1.29;100.00;97959.94;5046960;28;20566;-76
2021/04/12 03:25:52;;;;;;;22.13;12.55;;;;;;;1.25;100.00;97966.78;5050452;28;20049;-76
2021/04/12 03:28:32;;;;;;;21.67;11.75;;;;;;;1.21;100.00;97961.13;5031348;28;20094;-77
2021/04/12 03:31:23;;;;;;;21.38;12.23;;;;;;;1.19;100.00;97951.75;5047836;28;20044;-76
2021/04/12 03:34:15;;;;;;;17.45;10.52;;;;;;;1.16;100.00;97966.41;5046965;28;20496;-77
2021/04/12 03:37:05;;;;;;;18.75;10.80;;;;;;;1.10;100.00;97972.72;5047286;28;20044;-77
2021/04/12 03:39:40;;;;;;;19.13;11.02;;;;;;;1.07;100.00;97973.22;5030097;28;20048;-77
2021/04/12 03:42:26;;;;;;;19.65;10.75;;;;;;;1.04;100.00;97983.56;5028766;28;20053;-77
2021/04/12 03:45:04;;;;;;;19.77;9.68;;;;;;;1.04;100.00;97973.72;5028025;28;20056;-77
2021/04/12 03:47:46;;;;;;;22.63;10.15;;;;;;;1.01;100.00;97984.84;5032050;28;20116;-77
2021/04/12 03:50:52;;;;;;;18.65;9.57;;;;;;;1.02;100.00;97993.66;5047311;28;20555;-76
2021/04/12 03:54:16;;;;;;;19.67;9.73;;;;;;;0.95;100.00;98001.84;5026084;28;20046;-77
2021/04/12 03:56:44;;;;;;;16.88;9.55;;;;;;;0.98;100.00;98003.22;4988737;28;20062;-76
2021/04/12 03:59:38;;;;;;;21.80;10.95;;;;;;;0.91;100.00;98013.22;4993739;28;20054;-77
2021/04/12 04:02:44;;;;;;;18.50;7.32;;;;;;;0.90;100.00;98020.41;5033053;28;20057;-76
2021/04/12 04:05:55;;;;;;;21.33;7.93;;;;;;;0.94;100.00;98018.06;5034278;28;20076;-76
2021/04/12 04:08:36;;;;;;;15.27;8.18;;;;;;;0.97;100.00;98026.38;5030416;28;20061;-76
2021/04/12 04:11:33;;;;;;;15.88;7.93;;;;;;;0.97;100.00;98026.38;5038555;28;20041;-79
2021/04/12 04:14:05;;;;;;;13.98;7.55;;;;;;;0.99;100.00;98036.78;5062750;28;20045;-77
2021/04/12 04:16:42;;;;;;;16.15;7.95;;;;;;;1.04;100.00;98023.53;5062816;28;20040;-77
2021/04/12 04:19:32;;;;;;;15.30;8.73;;;;;;;1.11;100.00;98027.66;5060486;28;20045;-76
2021/04/12 04:22:29;;;;;;;18.55;9.57;;;;;;;1.00;100.00;98044.56;5074447;28;20048;-77
2021/04/12 04:25:14;;;;;;;26.05;12.18;;;;;;;1.13;100.00;98041.56;5076487;28;20040;-77
2021/04/12 04:28:19;;;;;;;21.85;12.25;;;;;;;1.15;100.00;98047.44;5071605;28;20064;-80
2021/04/12 04:31:01;;;;;;;24.35;13.75;;;;;;;1.09;100.00;98042.28;5065930;28;20155;-76
2021/04/12 04:33:50;;;;;;;20.98;12.13;;;;;;;1.08;100.00;98052.16;5064537;28;20024;-77
2021/04/12 04:36:24;;;;;;;23.73;13.02;;;;;;;1.06;100.00;98056.91;5071275;28;20100;-78
2021/04/12 04:39:03;;;;;;;24.75;13.70;;;;;;;1.03;100.00;98059.25;5067207;28;20049;-79
2021/04/12 04:41:42;;;;;;;24.48;13.32;;;;;;;1.01;100.00;98069.34;5068822;28;20079;-78
2021/04/12 04:44:45;;;;;;;24.48;13.80;;;;;;;1.08;100.00;98062.81;5084176;28;20052;-78
2021/04/12 04:47:11;;;;;;;29.27;13.95;;;;;;;1.04;100.00;98063.53;5052358;28;20061;-81
2021/04/12 04:49:52;;;;;;;26.40;13.65;;;;;;;1.03;100.00;98073.38;5062524;28;20050;-78
2021/04/12 04:53:06;;;;;;;23.00;12.68;;;;;;;1.06;100.00;98080.06;5074259;28;20718;-80
2021/04/12 04:55:51;;;;;;;22.05;12.25;;;;;;;1.03;100.00;98081.38;5039509;28;20162;-79
2021/04/12 04:58:26;;;;;;;22.52;12.45;;;;;;;1.03;100.00;98085.91;5058758;28;20053;-78
2021/04/12 05:01:20;;;;;;;23.17;12.02;;;;;;;1.06;100.00;98091.56;5074101;28;20295;-78
2021/04/12 05:04:03;;;;;;;22.67;11.82;;;;;;;1.05;100.00;98095.28;5036471;28;20317;-80
2021/04/12 05:07:04;;;;;;;25.20;14.05;;;;;;;0.99;100.00;98095.44;5055709;28;20049;-80
2021/04/12 05:09:39;;;;;;;30.73;15.50;;;;;;;1.03;100.00;98116.03;5050729;28;20055;-78
2021/04/12 05:12:33;;;;;;;28.48;14.68;;;;;;;1.03;100.00;98121.34;5052732;28;20181;-78
2021/04/12 05:15:15;;;;;;;27.80;12.82;;;;;;;1.01;100.00;98127.97;5055889;28;20056;-78
2021/04/12 05:18:10;;;;;;;25.38;12.65;;;;;;;1.05;100.00;98143.28;5062969;28;20045;-78
2021/04/12 05:21:10;;;;;;;23.25;10.75;;;;;;;1.14;100.00;98135.66;5046912;28;20079;-75
2021/04/12 05:23:39;;;;;;;26.20;11.57;;;;;;;1.17;100.00;98138.66;5051586;28;20045;-79
2021/04/12 05:26:42;;;;;;;20.92;10.80;;;;;;;1.18;100.00;98142.97;5038780;28;20047;-78
2021/04/12 05:29:15;;;;;;;19.50;10.15;;;;;;;1.12;100.00;98159.91;5036514;28;20050;-79
2021/04/12 05:32:18;;;;;;;22.30;10.18;;;;;;;1.14;100.00;98151.66;5024977;28;20627;-77
2021/04/12 05:35:00;;;;;;;24.80;11.63;;;;;;;1.17;100.00;98162.66;5037690;28;20083;-78
2021/04/12 05:37:38;;;;;;;24.30;10.32;;;;;;;1.17;100.00;98159.19;5052191;28;20064;-78
2021/04/12 05:40:24;;;;;;;26.25;10.35;;;;;;;1.20;100.00;98164.03;5048461;28;20028;-78
2021/04/12 05:43:29;;;;;;;22.77;9.98;;;;;;;1.23;100.00;98168.88;5066253;28;20044;-79
2021/04/12 05:46:33;;;;;;;24.05;9.95;;;;;;;1.26;100.00;98174.53;5055916;28;20064;-79
2021/04/12 05:49:17;;;;;;;23.45;9.68;;;;;;;1.23;100.00;98172.38;5053304;28;20040;-79
2021/04/12 05:52:02;;;;;;;21.52;9.80;;;;;;;1.26;100.00;98176.41;5039457;28;20133;-79
2021/04/12 05:55:23;;;;;;;19.50;9.38;;;;;;;1.34;100.00;98178.69;5055503;28;20049;-79
2021/04/12 05:58:21;;;;;;;19.88;10.65;;;;;;;1.29;100.00;98188.44;5037695;28;20108;-79
2021/04/12 06:01:16;;;;;;;18.75;10.07;;;;;;;1.32;100.00;98175.41;5054216;28;20056;-80
2021/04/12 06:03:56;;;;;;;18.87;10.63;;;;;;;1.36;100.00;98186.44;5029155;28;20041;-79
2021/04/12 06:07:00;;;;;;;19.58;11.00;;;;;;;1.47;100.00;98180.22;5036075;28;20436;-81
2021/04/12 06:09:38;;;;;;;19.98;10.48;;;;;;;1.41;100.00;98186.50;5011148;28;20053;-80
2021/04/12 06:12:18;;;;;;;21.70;11.73;;;;;;;1.51;100.00;98195.47;5033533;28;20033;-80
2021/04/12 06:14:58;;;;;;;22.45;12.00;;;;;;;1.55;100.00;98207.28;5037794;28;20056;-81
2021/04/12 06:17:50;;;;;;;19.38;11.23;;;;;;;1.62;100.00;98193.78;5036708;28;20386;-79
2021/04/12 06:20:35;;;;;;;21.52;11.32;;;;;;;1.65;100.00;98199.41;5055285;28;20045;-80
2021/04/12 06:23:34;;;;;;;19.95;10.88;;;;;;;1.62;100.00;98212.47;5055906;28;20087;-80
2021/04/12 06:26:25;;;;;;;19.80;10.52;;;;;;;1.61;100.00;98198.31;5053698;28;20135;-79
2021/04/12 06:29:17;;;;;;;19.15;11.23;;;;;;;1.67;100.00;98207.19;5054393;28;20041;-80
2021/04/12 06:32:21;;;;;;;21.67;11.73;;;;;;;1.71;100.00;98197.63;5055754;28;20049;-80
2021/04/12 06:35:27;;;;;;;22.23;12.52;;;;;;;1.79;100.00;98200.72;5055466;28;20041;-77
2021/04/12 06:38:24;;;;;;;23.23;12.82;;;;;;;1.74;100.00;98223.84;5055303;28;20139;-77
2021/04/12 06:41:17;;;;;;;24.65;13.55;;;;;;;1.66;100.00;98222.41;5052997;28;20055;-78
2021/04/12 06:44:06;;;;;;;25.05;13.52;;;;;;;1.72;100.00;98231.28;5062762;28;20051;-77
2021/04/12 06:46:52;;;;;;;27.15;14.45;;;;;;;1.68;100.00;98230.97;5065072;28;20045;-78
2021/04/12 06:49:50;;;;;;;27.48;15.32;;;;;;;1.68;100.00;98230.97;5035341;28;20088;-78
2021/04/12 06:52:58;;;;;;;35.58;17.40;;;;;;;1.64;100.00;98243.19;5061112;28;20049;-78
2021/04/12 06:55:52;;;;;;;39.10;18.02;;;;;;;1.55;100.00;98241.16;5040976;28;20049;-79
2021/04/12 06:58:33;;;;;;;39.85;20.20;;;;;;;1.66;100.00;98248.25;5055367;28;20047;-79
2021/04/12 07:01:27;;;;;;;38.40;19.10;;;;;;;1.61;100.00;98250.84;5054460;28;20060;-80
2021/04/12 07:04:16;;;;;;;36.28;19.30;;;;;;;1.53;100.00;98257.41;5052755;28;20452;-79
2021/04/12 07:07:29;;;;;;;40.30;20.08;;;;;;;1.54;100.00;98261.69;5054464;28;20052;-79
2021/04/12 07:10:11;;;;;;;39.08;19.92;;;;;;;1.54;100.00;98264.38;5052705;28;20059;-78
2021/04/12 07:13:05;;;;;;;39.58;20.60;;;;;;;1.60;100.00;98267.94;5051921;28;20049;-78
2021/04/12 07:15:52;;;;;;;38.85;20.20;;;;;;;1.69;100.00;98269.13;5053958;28;20041;-78
2021/04/12 07:18:40;;;;;;;37.58;19.25;;;;;;;1.83;100.00;98273.13;5052726;28;20095;-79
2021/04/12 07:21:44;;;;;;;38.78;19.95;;;;;;;1.85;100.00;98269.16;5052536;28;20082;-78
2021/04/12 07:24:29;;;;;;;38.78;20.55;;;;;;;1.88;100.00;98273.19;5052526;28;20033;-79
2021/04/12 07:27:31;;;;;;;38.28;20.73;;;;;;;1.95;100.00;98271.16;5052732;28;20048;-80
2021/04/12 07:30:35;;;;;;;37.78;20.20;;;;;;;2.13;100.00;98267.41;5054923;28;20041;-79
2021/04/12 07:33:38;;;;;;;40.55;19.77;;;;;;;2.17;100.00;98269.34;5055829;28;20072;-81
2021/04/12 07:36:10;;;;;;;38.58;20.13;;;;;;;2.20;100.00;98278.72;5055128;28;20489;-79
2021/04/12 07:39:18;;;;;;;35.13;19.90;;;;;;;2.16;100.00;98283.75;5056423;28;20045;-80
2021/04/12 07:42:29;;;;;;;36.20;20.42;;;;;;;2.17;100.00;98295.25;5038691;28;20489;-79
2021/04/12 07:45:24;;;;;;;35.55;20.23;;;;;;;2.14;100.00;98307.22;5072798;28;20044;-80
2021/04/12 07:48:27;;;;;;;34.55;19.80;;;;;;;2.11;100.00;98299.72;5065276;28;20041;-77
2021/04/12 07:51:18;;;;;;;37.58;19.83;;;;;;;2.27;100.00;98300.75;5059848;28;20116;-78
2021/04/12 07:54:03;;;;;;;33.15;19.13;;;;;;;2.26;100.00;98309.81;5052906;28;20047;-78
2021/04/12 07:56:40;;;;;;;36.38;20.00;;;;;;;2.52;100.00;98314.47;5067786;28;20500;-78
2021/04/12 07:59:27;;;;;;;36.30;20.73;;;;;;;2.64;100.00;98309.00;5047627;28;20049;-78
2021/04/12 08:02:43;;;;;;;35.78;20.35;;;;;;;2.53;100.00;98319.53;5034431;28;20041;-78
2021/04/12 08:05:31;;;;;;;38.53;22.42;;;;;;;2.50;100.00;98328.06;5050370;28;20564;-78
2021/04/12 08:08:40;;;;;;;36.55;20.60;;;;;;;2.67;100.00;98329.88;5065446;23;20100;-78
2021/04/12 08:12:19;;;;;;;32.88;19.38;;;;;;;2.56;100.00;98323.59;5065577;28;20040;-77
2021/04/12 08:15:13;;;;;;;31.90;19.40;;;;;;;2.78;100.00;98315.59;5065066;28;20056;-78
2021/04/12 08:18:10;;;;;;;34.95;19.77;;;;;;;3.00;100.00;98316.41;5086844;28;20045;-78
2021/04/12 08:21:02;;;;;;;38.45;19.92;;;;;;;3.12;100.00;98301.06;5062925;28;20078;-77
2021/04/12 08:23:57;;;;;;;34.22;19.25;;;;;;;3.05;100.00;98301.22;5073797;28;20044;-79
2021/04/12 08:26:48;;;;;;;32.10;19.65;;;;;;;3.02;100.00;98319.66;5067800;28;20088;-77
2021/04/12 08:29:38;;;;;;;34.33;20.13;;;;;;;2.95;100.00;98322.50;5039848;28;20048;-79
2021/04/12 08:32:43;;;;;;;36.60;21.23;;;;;;;2.99;100.00;98328.97;5061727;28;20067;-79
2021/04/12 08:35:18;;;;;;;34.03;19.45;;;;;;;3.32;100.00;98328.03;5077420;28;20113;-79
2021/04/12 08:38:18;;;;;;;35.25;19.98;;;;;;;3.35;100.00;98319.50;5070594;28;20056;-72
2021/04/12 08:41:31;;;;;;;33.92;19.77;;;;;;;3.20;100.00;98331.91;5075660;28;20090;-78
2021/04/12 08:44:14;;;;;;;33.28;19.63;;;;;;;3.11;100.00;98332.34;5048500;28;20136;-78
2021/04/12 08:47:10;;;;;;;37.45;19.45;;;;;;;3.32;100.00;98340.59;5057534;28;20121;-76
2021/04/12 08:50:16;;;;;;;31.50;17.98;;;;;;;3.15;100.00;98343.31;5041530;28;20044;-78
2021/04/12 08:53:13;;;;;;;28.42;16.20;;;;;;;3.16;100.00;98347.63;5068290;28;20045;-79
2021/04/12 08:55:48;;;;;;;29.80;17.95;;;;;;;3.34;100.00;98344.63;5052883;28;20037;-77
2021/04/12 08:58:36;;;;;;;30.50;16.52;;;;;;;3.21;100.00;98347.69;5051176;28;20132;-77
2021/04/12 09:01:43;;;;;;;30.17;15.73;;;;;;;3.17;100.00;98352.72;5070410;28;20049;-77
2021/04/12 09:04:32;;;;;;;;;;;;;;;3.31;100.00;98360.38;5072919;28;20130;-78
2021/04/12 09:07:24;;;;;;;26.17;14.43;;;;;;;3.61;100.00;98366.06;5071433;28;19927;-77
2021/04/12 09:09:59;;;;;;;26.30;13.55;;;;;;;3.65;100.00;98368.00;5066198;28;20047;-77
2021/04/12 09:12:44;;;;;;;31.33;15.48;;;;;;;3.78;100.00;98374.81;5070894;28;20071;-78
2021/04/12 09:16:02;;;;;;;25.33;13.88;;;;;;;3.56;100.00;98374.84;5054591;28;20107;-78
2021/04/12 09:18:54;;;;;;;24.52;13.35;;;;;;;3.88;100.00;98374.09;5071934;28;20045;-79
2021/04/12 09:21:39;;;;;;;17.85;10.90;;;;;;;3.70;100.00;98385.97;5073318;28;20071;-78
2021/04/12 09:24:40;;;;;;;21.55;11.73;;;;;;;3.47;100.00;98383.56;5054437;28;20059;-77
2021/04/12 09:27:28;;;;;;;22.95;11.50;;;;;;;3.52;100.00;98389.81;5070543;28;20049;-78
2021/04/12 09:30:21;;;;;;;18.83;10.30;;;;;;;3.43;100.00;98391.28;5072081;28;20044;-80
2021/04/12 09:33:23;;;;;;;17.15;9.10;;;;;;;3.73;100.00;98380.94;5068638;28;20032;-78
2021/04/12 09:36:24;;;;;;;15.15;8.20;;;;;;;3.93;100.00;98398.25;5055393;28;20472;-78
2021/04/12 09:39:15;;;;;;;16.73;9.23;;;;;;;3.63;100.00;98390.72;5054885;28;20049;-77
2021/04/12 09:41:56;;;;;;;16.70;9.20;;;;;;;3.46;100.00;98401.50;5080532;28;20047;-78
2021/04/12 09:45:17;;;;;;;16.83;9.05;;;;;;;3.74;100.00;98408.53;5056536;28;20048;-80
2021/04/12 09:48:10;;;;;;;13.88;9.18;;;;;;;3.48;100.00;98407.44;5009964;28;20042;-77
2021/04/12 09:50:57;;;;;;;17.17;8.07;;;;;;;3.09;100.00;98419.25;5070684;28;20463;-78
2021/04/12 09:53:46;;;;;;;13.50;7.90;;;;;;;2.90;100.00;98424.06;5053744;28;20369;-79
2021/04/12 09:56:15;;;;;;;17.88;8.50;;;;;;;2.82;100.00;98435.16;5071947;28;20044;-78
2021/04/12 09:59:19;;;;;;;14.75;8.18;;;;;;;2.78;100.00;98444.75;5070014;28;20036;-78
2021/04/12 10:02:22;;;;;;;14.85;9.27;;;;;;;2.88;100.00;98438.72;5070837;28;20047;-78
2021/04/12 10:05:25;;;;;;;22.00;10.90;;;;;;;2.81;100.00;98449.59;5069259;28;20063;-77
2021/04/12 10:08:08;;;;;;;24.17;11.93;;;;;;;3.12;100.00;98437.47;5058330;28;20044;-78
2021/04/12 10:11:11;;;;;;;20.02;10.13;;;;;;;3.09;100.00;98435.28;5072021;28;20036;-77
2021/04/12 10:13:46;;;;;;;17.88;9.32;;;;;;;3.09;100.00;98443.31;5052389;28;20047;-78
2021/04/12 10:16:34;;;;;;;18.52;9.30;;;;;;;3.02;100.00;98434.66;5070966;28;20044;-78
2021/04/12 10:19:20;;;;;;;17.90;8.80;;;;;;;3.22;100.00;98434.94;5069771;28;20054;-78
2021/04/12 10:21:56;;;;;;;17.60;7.85;;;;;;;3.25;100.00;98434.44;5069536;28;20044;-77
2021/04/12 10:24:27;;;;;;;14.32;7.25;;;;;;;3.35;100.00;98434.56;5071557;28;20087;-77
2021/04/12 10:26:58;;;;;;;14.38;7.43;;;;;;;3.44;100.00;98438.41;5071547;28;20094;-77
2021/04/12 10:29:33;;;;;;;14.13;6.72;;;;;;;3.13;100.00;98433.72;5048808;28;20384;-78
2021/04/12 10:32:19;;;;;;;;;;;;;;;3.04;100.00;98428.00;5072200;28;20036;-78
2021/04/12 10:34:52;;;;;;;14.57;6.80;;;;;;;3.09;100.00;98421.91;5047969;28;20450;-77
2021/04/12 10:37:44;;;;;;;16.48;7.95;;;;;;;3.11;100.00;98433.16;5032509;28;20654;-70
2021/04/12 10:40:35;;;;;;;13.30;7.07;;;;;;;3.40;100.00;98452.53;5064024;28;20134;-70
2021/04/12 10:43:26;;;;;;;18.95;8.68;;;;;;;3.41;100.00;98432.72;5049229;28;20124;-80
2021/04/12 10:45:58;;;;;;;14.13;7.75;;;;;;;3.68;100.00;98433.59;5041395;28;20059;-78
2021/04/12 10:48:33;;;;;;;18.10;7.65;;;;;;;3.59;100.00;98438.59;5048551;28;20489;-80
2021/04/12 10:51:00;;;;;;;13.68;5.35;;;;;;;3.44;100.00;98446.44;5066818;28;20135;-79
2021/04/12 10:54:13;;;;;;;14.05;6.78;;;;;;;3.35;100.00;98444.44;5065746;28;20044;-78
2021/04/12 10:56:43;;;;;;;15.27;7.65;;;;;;;3.70;100.00;98440.34;5050172;28;20044;-78
2021/04/12 10:59:42;;;;;;;12.77;8.38;;;;;;;3.59;100.00;98448.47;5085524;28;20131;-78
2021/04/12 11:02:21;;;;;;;18.13;9.77;;;;;;;3.39;100.00;98456.28;5065476;28;20118;-80
2021/04/12 11:04:54;;;;;;;18.52;11.35;;;;;;;3.55;100.00;98450.06;5072023;28;20123;-80
2021/04/12 11:07:29;;;;;;;19.20;11.68;;;;;;;4.14;100.00;98440.25;5044543;28;20044;-79
2021/04/12 11:10:41;;;;;;;19.23;10.07;;;;;;;4.79;100.00;98437.31;5074581;28;20055;-79
2021/04/12 11:13:09;;;;;;;16.90;9.05;;;;;;;4.87;100.00;98434.97;5055357;28;20114;-80
2021/04/12 11:16:07;;;;;;;13.07;7.95;;;;;;;4.85;100.00;98434.38;5053968;28;20038;-78
2021/04/12 11:18:53;;;;;;;17.45;8.18;;;;;;;4.50;100.00;98434.13;5069896;28;20056;-78
2021/04/12 11:21:26;;;;;;;15.70;8.52;;;;;;;4.68;100.00;98447.16;5052779;28;20044;-78
2021/04/12 11:24:22;;;;;;;18.48;9.85;;;;;;;5.37;100.00;98447.03;5055170;28;20086;-79
2021/04/12 11:27:07;;;;;;;12.23;8.45;;;;;;;5.34;100.00;98443.00;5081917;28;20567;-80
2021/04/12 11:29:42;;;;;;;19.17;9.10;;;;;;;4.81;100.00;98453.94;5083249;28;20052;-79
2021/04/12 11:32:10;;;;;;;14.75;8.10;;;;;;;4.57;100.00;98458.06;5077015;28;20044;-78
2021/04/12 11:34:51;;;;;;;17.27;8.40;;;;;;;4.02;100.00;98447.63;5054776;28;20102;-78
2021/04/12 11:37:30;;;;;;;19.10;9.73;;;;;;;3.82;100.00;98464.28;5025766;28;20056;-78
2021/04/12 11:40:17;;;;;;;16.02;9.38;;;;;;;3.89;100.00;98466.78;5043755;28;20584;-78
2021/04/12 11:42:52;;;;;;;13.82;8.32;;;;;;;4.14;100.00;98478.56;5049851;28;20060;-78
2021/04/12 11:45:24;;;;;;;11.20;6.13;;;;;;;4.30;100.00;98468.81;5080721;28;20035;-77
2021/04/12 11:48:00;;;;;;;11.55;7.18;;;;;;;4.65;100.00;98473.66;5065804;28;20044;-78
2021/04/12 11:50:42;;;;;;;10.38;7.00;;;;;;;4.95;100.00;98472.03;5048786;28;20545;-81
2021/04/12 11:53:27;;;;;;;11.50;7.22;;;;;;;5.26;100.00;98464.97;5062387;28;20044;-78
2021/04/12 11:56:27;;;;;;;9.43;6.32;;;;;;;5.84;100.00;98471.94;5043095;28;20041;-79
2021/04/12 11:59:19;;;;;;;10.50;5.70;;;;;;;5.91;100.00;98477.13;5066474;28;20040;-78
2021/04/12 12:01:54;;;;;;;8.77;4.38;;;;;;;6.09;100.00;98474.72;5078583;28;20222;-79
2021/04/12 12:04:20;;;;;;;;;;;;;;;6.17;100.00;98465.34;5055329;28;20091;-79
2021/04/12 12:07:07;;;;;;;12.32;3.60;;;;;;;6.25;100.00;98479.06;5070839;28;19924;-78
2021/04/12 12:09:44;;;;;;;14.63;4.15;;;;;;;5.86;100.00;98482.47;5059448;28;20094;-81
2021/04/12 12:12:27;;;;;;;11.90;4.05;;;;;;;5.91;100.00;98483.28;5057034;28;20518;-79
2021/04/12 12:15:27;;;;;;;7.22;3.80;;;;;;;5.63;100.00;98491.72;5068961;28;20048;-79
2021/04/12 12:18:07;;;;;;;8.80;4.50;;;;;;;5.63;100.00;98483.66;5048601;28;20116;-78
2021/04/12 12:20:36;;;;;;;11.60;5.55;;;;;;;5.17;100.00;98500.59;5038191;28;20041;-79
2021/04/12 12:23:40;;;;;;;9.80;6.18;;;;;;;5.57;100.00;98498.94;5054910;28;20041;-79
2021/04/12 12:26:16;;;;;;;13.50;5.50;;;;;;;6.15;100.00;98489.00;5055443;28;20059;-78
2021/04/12 12:28:49;;;;;;;16.85;5.95;;;;;;;6.23;100.00;98491.16;5053768;28;20162;-79
2021/04/12 12:31:31;;;;;;;18.45;5.38;;;;;;;6.34;100.00;98494.69;5037320;28;20045;-79
2021/04/12 12:34:06;;;;;;;28.33;10.20;;;;;;;6.36;100.00;98496.03;5073546;28;20078;-77
2021/04/12 12:36:52;;;;;;;22.65;7.15;;;;;;;6.84;100.00;98503.59;5082259;28;20041;-77
2021/04/12 12:39:45;;;;;;;12.82;6.45;;;;;;;6.58;100.00;98496.59;5037800;28;20051;-77
2021/04/12 12:42:40;;;;;;;12.15;7.53;;;;;;;5.65;100.00;98492.31;5057099;28;20051;-78
2021/04/12 12:45:23;;;;;;;16.80;7.40;;;;;;;5.00;100.00;98492.72;5072946;28;20064;-78
2021/04/12 12:47:54;;;;;;;16.40;7.57;;;;;;;5.03;100.00;98494.91;5074393;28;20037;-78
2021/04/12 12:50:25;;;;;;;14.10;7.43;;;;;;;5.03;100.00;98505.63;5056811;28;20066;-79
2021/04/12 12:52:56;;;;;;;16.60;8.10;;;;;;;4.90;100.00;98509.53;5074346;28;20064;-78
2021/04/12 12:55:31;;;;;;;17.38;7.95;;;;;;;4.58;100.00;98510.63;5075334;28;20049;-78
2021/04/12 12:58:04;;;;;;;;;;;;;;;4.39;100.00;98510.16;5076770;28;20051;-78